sensor_id;sensor_type;location;lat;lon;timestamp;pressure;altitude;pressure_sealevel;temperature;humidity
81608;BME280;71022;48.122;11.576;2023-08-01T00:01:14;94845.72;;;20.96;52.11
81608;BME280;71022;48.122;11.576;2023-08-01T00:03:41;94841.66;;;20.97;52.69
81608;BME280;71022;48.122;11.576;2023-08-01T00:06:08;94834.38;;;20.87;52.43
81608;BME280;71022;48.122;11.576;2023-08-01T00:08:35;94821.03;;;20.78;52.37
81608;BME280;71022;48.122;11.576;2023-08-01T00:11:03;94826.72;;;20.75;51.25
81608;BME280;71022;48.122;11.576;2023-08-01T00:13:30;94829.25;;;20.69;52.98
81608;BME280;71022;48.122;11.576;2023-08-01T00:15:57;94815.47;;;20.78;52.73
81608;BME280;71022;48.122;11.576;2023-08-01T00:18:34;94810.38;;;20.89;51.13
81608;BME280;71022;48.122;11.576;2023-08-01T00:21:02;94810.47;;;20.86;50.89
81608;BME280;71022;48.122;11.576;2023-08-01T00:23:29;94801.84;;;20.80;50.88
81608;BME280;71022;48.122;11.576;2023-08-01T00:25:56;94801.06;;;20.80;51.04
81608;BME280;71022;48.122;11.576;2023-08-01T00:28:24;94801.94;;;20.77;51.56
81608;BME280;71022;48.122;11.576;2023-08-01T00:31:01;94790.28;;;20.66;52.14
81608;BME280;71022;48.122;11.576;2023-08-01T00:33:28;94788.28;;;20.66;51.10
81608;BME280;71022;48.122;11.576;2023-08-01T00:35:56;94781.72;;;20.57;51.50
81608;BME280;71022;48.122;11.576;2023-08-01T00:38:23;94778.69;;;20.51;52.17
81608;BME280;71022;48.122;11.576;2023-08-01T00:40:50;94770.56;;;20.57;51.48
81608;BME280;71022;48.122;11.576;2023-08-01T00:43:18;94764.66;;;20.55;51.68
81608;BME280;71022;48.122;11.576;2023-08-01T00:45:46;94769.31;;;20.74;51.32
81608;BME280;71022;48.122;11.576;2023-08-01T00:48:13;94765.31;;;20.75;51.42
81608;BME280;71022;48.122;11.576;2023-08-01T00:50:41;94750.31;;;20.69;51.46
81608;BME280;71022;48.122;11.576;2023-08-01T00:53:09;94744.25;;;20.58;51.72
81608;BME280;71022;48.122;11.576;2023-08-01T00:55:36;94741.88;;;20.56;51.96
81608;BME280;71022;48.122;11.576;2023-08-01T00:58:04;94736.22;;;20.43;52.37
81608;BME280;71022;48.122;11.576;2023-08-01T01:00:31;94736.94;;;20.31;53.45
81608;BME280;71022;48.122;11.576;2023-08-01T01:03:01;94735.97;;;20.38;52.88
81608;BME280;71022;48.122;11.576;2023-08-01T01:05:35;94736.06;;;20.34;52.70
81608;BME280;71022;48.122;11.576;2023-08-01T01:08:04;94729.81;;;20.30;52.88
81608;BME280;71022;48.122;11.576;2023-08-01T01:10:31;94731.63;;;20.37;52.36
81608;BME280;71022;48.122;11.576;2023-08-01T01:12:59;94725.13;;;20.27;53.71
81608;BME280;71022;48.122;11.576;2023-08-01T01:15:26;94718.22;;;20.32;53.07
81608;BME280;71022;48.122;11.576;2023-08-01T01:17:54;94714.63;;;20.31;52.91
81608;BME280;71022;48.122;11.576;2023-08-01T01:20:24;94709.72;;;20.19;53.69
81608;BME280;71022;48.122;11.576;2023-08-01T01:22:53;94706.94;;;20.19;53.45
81608;BME280;71022;48.122;11.576;2023-08-01T01:25:22;94696.88;;;20.09;53.81
81608;BME280;71022;48.122;11.576;2023-08-01T01:27:51;94696.50;;;20.07;53.93
81608;BME280;71022;48.122;11.576;2023-08-01T01:30:20;94692.16;;;20.06;54.22
81608;BME280;71022;48.122;11.576;2023-08-01T01:32:48;94688.66;;;20.18;53.56
81608;BME280;71022;48.122;11.576;2023-08-01T01:35:16;94694.84;;;20.26;53.02
81608;BME280;71022;48.122;11.576;2023-08-01T01:37:43;94706.59;;;20.17;53.82
81608;BME280;71022;48.122;11.576;2023-08-01T01:40:11;94689.47;;;20.03;54.10
81608;BME280;71022;48.122;11.576;2023-08-01T01:42:38;94694.53;;;19.92;54.40
81608;BME280;71022;48.122;11.576;2023-08-01T01:45:05;94692.84;;;19.94;54.31
81608;BME280;71022;48.122;11.576;2023-08-01T01:47:33;94704.34;;;19.96;54.15
81608;BME280;71022;48.122;11.576;2023-08-01T01:50:00;94691.44;;;20.02;54.12
81608;BME280;71022;48.122;11.576;2023-08-01T01:52:27;94673.59;;;20.16;54.44
81608;BME280;71022;48.122;11.576;2023-08-01T01:54:55;94684.31;;;20.17;54.75
81608;BME280;71022;48.122;11.576;2023-08-01T01:57:22;94686.91;;;20.24;54.42
81608;BME280;71022;48.122;11.576;2023-08-01T01:59:49;94672.13;;;20.27;54.91
81608;BME280;71022;48.122;11.576;2023-08-01T02:02:16;94661.66;;;20.31;55.73
81608;BME280;71022;48.122;11.576;2023-08-01T02:04:46;94664.19;;;20.26;55.78
81608;BME280;71022;48.122;11.576;2023-08-01T02:07:14;94652.06;;;20.32;55.88
81608;BME280;71022;48.122;11.576;2023-08-01T02:09:41;94645.59;;;20.19;56.74
81608;BME280;71022;48.122;11.576;2023-08-01T02:12:09;94637.50;;;20.25;56.61
81608;BME280;71022;48.122;11.576;2023-08-01T02:14:41;94643.00;;;20.28;57.04
81608;BME280;71022;48.122;11.576;2023-08-01T02:17:08;94638.13;;;20.32;56.52
81608;BME280;71022;48.122;11.576;2023-08-01T02:19:36;94641.16;;;20.38;57.03
81608;BME280;71022;48.122;11.576;2023-08-01T02:22:04;94637.94;;;20.39;56.24
81608;BME280;71022;48.122;11.576;2023-08-01T02:24:31;94621.34;;;20.49;57.06
81608;BME280;71022;48.122;11.576;2023-08-01T02:26:58;94618.94;;;20.34;57.58
81608;BME280;71022;48.122;11.576;2023-08-01T02:29:25;94611.13;;;20.29;57.17
81608;BME280;71022;48.122;11.576;2023-08-01T02:31:53;94620.59;;;20.32;56.83
81608;BME280;71022;48.122;11.576;2023-08-01T02:34:20;94612.38;;;20.41;56.28
81608;BME280;71022;48.122;11.576;2023-08-01T02:36:47;94613.00;;;20.49;56.49
81608;BME280;71022;48.122;11.576;2023-08-01T02:39:15;94612.28;;;20.45;56.67
81608;BME280;71022;48.122;11.576;2023-08-01T02:41:42;94614.63;;;20.46;56.19
81608;BME280;71022;48.122;11.576;2023-08-01T02:44:09;94618.75;;;20.41;56.79
81608;BME280;71022;48.122;11.576;2023-08-01T02:46:36;94620.84;;;20.37;56.17
81608;BME280;71022;48.122;11.576;2023-08-01T02:49:04;94611.22;;;20.26;56.30
81608;BME280;71022;48.122;11.576;2023-08-01T02:51:31;94623.16;;;20.26;56.91
81608;BME280;71022;48.122;11.576;2023-08-01T02:53:59;94614.94;;;20.35;56.49
81608;BME280;71022;48.122;11.576;2023-08-01T02:56:26;94617.19;;;20.40;56.33
81608;BME280;71022;48.122;11.576;2023-08-01T02:58:54;94626.34;;;20.41;56.78
81608;BME280;71022;48.122;11.576;2023-08-01T03:01:22;94634.78;;;20.37;57.07
81608;BME280;71022;48.122;11.576;2023-08-01T03:03:50;94622.66;;;20.44;57.22
81608;BME280;71022;48.122;11.576;2023-08-01T03:06:17;94630.44;;;20.36;57.28
81608;BME280;71022;48.122;11.576;2023-08-01T03:08:45;94639.38;;;19.99;59.05
81608;BME280;71022;48.122;11.576;2023-08-01T03:11:51;94640.06;;;19.87;59.75
81608;BME280;71022;48.122;11.576;2023-08-01T03:14:19;94638.16;;;20.00;59.57
81608;BME280;71022;48.122;11.576;2023-08-01T03:16:46;94633.72;;;20.03;60.36
81608;BME280;71022;48.122;11.576;2023-08-01T03:19:13;94621.34;;;20.04;59.35
81608;BME280;71022;48.122;11.576;2023-08-01T03:21:41;94622.19;;;20.17;59.20
81608;BME280;71022;48.122;11.576;2023-08-01T03:24:08;94629.44;;;19.98;59.61
81608;BME280;71022;48.122;11.576;2023-08-01T03:26:36;94631.63;;;19.74;60.88
81608;BME280;71022;48.122;11.576;2023-08-01T03:29:04;94638.84;;;19.72;61.54
81608;BME280;71022;48.122;11.576;2023-08-01T03:31:32;94638.69;;;19.79;61.55
81608;BME280;71022;48.122;11.576;2023-08-01T03:34:00;94634.25;;;19.81;61.22
81608;BME280;71022;48.122;11.576;2023-08-01T03:36:27;94634.16;;;19.85;61.10
81608;BME280;71022;48.122;11.576;2023-08-01T03:38:55;94626.66;;;19.98;61.20
81608;BME280;71022;48.122;11.576;2023-08-01T03:41:22;94638.66;;;20.11;60.21
81608;BME280;71022;48.122;11.576;2023-08-01T03:43:50;94649.09;;;20.07;60.65
81608;BME280;71022;48.122;11.576;2023-08-01T03:46:17;94640.56;;;19.98;61.16
81608;BME280;71022;48.122;11.576;2023-08-01T03:48:45;94638.84;;;20.04;61.07
81608;BME280;71022;48.122;11.576;2023-08-01T03:51:12;94649.38;;;19.97;60.93
81608;BME280;71022;48.122;11.576;2023-08-01T03:53:42;94646.16;;;19.98;60.58
81608;BME280;71022;48.122;11.576;2023-08-01T03:56:09;94649.81;;;20.11;60.27
81608;BME280;71022;48.122;11.576;2023-08-01T03:58:36;94650.59;;;20.12;60.67
81608;BME280;71022;48.122;11.576;2023-08-01T04:01:03;94649.63;;;20.18;60.59
81608;BME280;71022;48.122;11.576;2023-08-01T04:03:31;94657.13;;;20.21;60.32
81608;BME280;71022;48.122;11.576;2023-08-01T04:05:59;94660.09;;;20.14;61.46
81608;BME280;71022;48.122;11.576;2023-08-01T04:08:26;94659.72;;;20.28;61.72
81608;BME280;71022;48.122;11.576;2023-08-01T04:10:56;94663.50;;;20.06;61.95
81608;BME280;71022;48.122;11.576;2023-08-01T04:13:23;94660.09;;;19.98;62.50
81608;BME280;71022;48.122;11.576;2023-08-01T04:15:50;94662.88;;;19.98;62.63
81608;BME280;71022;48.122;11.576;2023-08-01T04:18:17;94667.78;;;19.94;63.00
81608;BME280;71022;48.122;11.576;2023-08-01T04:20:45;94654.38;;;19.89;63.46
81608;BME280;71022;48.122;11.576;2023-08-01T04:23:13;94658.34;;;19.72;64.33
81608;BME280;71022;48.122;11.576;2023-08-01T04:25:40;94656.47;;;19.85;63.19
81608;BME280;71022;48.122;11.576;2023-08-01T04:28:08;94655.41;;;19.79;64.27
81608;BME280;71022;48.122;11.576;2023-08-01T04:30:35;94655.41;;;19.79;64.14
81608;BME280;71022;48.122;11.576;2023-08-01T04:33:05;94660.13;;;19.82;64.50
81608;BME280;71022;48.122;11.576;2023-08-01T04:35:32;94669.88;;;19.74;64.69
81608;BME280;71022;48.122;11.576;2023-08-01T04:37:59;94660.81;;;19.86;64.20
81608;BME280;71022;48.122;11.576;2023-08-01T04:40:27;94669.44;;;19.75;64.82
81608;BME280;71022;48.122;11.576;2023-08-01T04:42:54;94658.13;;;19.82;64.37
81608;BME280;71022;48.122;11.576;2023-08-01T04:45:22;94651.94;;;19.91;65.46
81608;BME280;71022;48.122;11.576;2023-08-01T04:47:49;94647.75;;;19.67;65.35
81608;BME280;71022;48.122;11.576;2023-08-01T04:50:16;94651.16;;;19.58;66.19
81608;BME280;71022;48.122;11.576;2023-08-01T04:52:43;94657.47;;;19.43;66.80
81608;BME280;71022;48.122;11.576;2023-08-01T04:55:11;94652.94;;;19.49;66.76
81608;BME280;71022;48.122;11.576;2023-08-01T04:57:38;94646.16;;;19.66;66.15
81608;BME280;71022;48.122;11.576;2023-08-01T05:00:05;94641.81;;;19.81;65.91
81608;BME280;71022;48.122;11.576;2023-08-01T05:02:33;94641.13;;;19.77;67.21
81608;BME280;71022;48.122;11.576;2023-08-01T05:05:00;94635.56;;;19.61;67.53
81608;BME280;71022;48.122;11.576;2023-08-01T05:07:28;94636.94;;;19.69;68.33
81608;BME280;71022;48.122;11.576;2023-08-01T05:09:55;94629.66;;;19.59;68.96
81608;BME280;71022;48.122;11.576;2023-08-01T05:12:22;94631.00;;;19.34;70.61
81608;BME280;71022;48.122;11.576;2023-08-01T05:14:49;94626.44;;;19.24;71.64
81608;BME280;71022;48.122;11.576;2023-08-01T05:17:16;94630.00;;;19.25;70.73
81608;BME280;71022;48.122;11.576;2023-08-01T05:19:44;94620.34;;;19.13;71.52
81608;BME280;71022;48.122;11.576;2023-08-01T05:22:11;94620.84;;;19.08;71.85
81608;BME280;71022;48.122;11.576;2023-08-01T05:24:38;94597.34;;;19.09;70.82
81608;BME280;71022;48.122;11.576;2023-08-01T05:27:06;94603.72;;;19.10;71.95
81608;BME280;71022;48.122;11.576;2023-08-01T05:29:33;94593.84;;;18.89;71.56
81608;BME280;71022;48.122;11.576;2023-08-01T05:32:00;94594.16;;;18.75;71.70
81608;BME280;71022;48.122;11.576;2023-08-01T05:34:27;94601.13;;;18.83;72.31
81608;BME280;71022;48.122;11.576;2023-08-01T05:36:55;94604.44;;;18.78;71.66
81608;BME280;71022;48.122;11.576;2023-08-01T05:39:22;94606.38;;;18.97;71.54
81608;BME280;71022;48.122;11.576;2023-08-01T05:41:49;94612.84;;;19.10;70.47
81608;BME280;71022;48.122;11.576;2023-08-01T05:44:17;94609.13;;;19.17;70.52
81608;BME280;71022;48.122;11.576;2023-08-01T05:46:45;94614.78;;;19.13;70.82
81608;BME280;71022;48.122;11.576;2023-08-01T05:49:12;94611.91;;;18.81;71.57
81608;BME280;71022;48.122;11.576;2023-08-01T05:51:39;94616.41;;;18.75;72.77
81608;BME280;71022;48.122;11.576;2023-08-01T05:54:06;94613.38;;;18.69;71.38
81608;BME280;71022;48.122;11.576;2023-08-01T05:56:34;94608.78;;;18.59;72.96
81608;BME280;71022;48.122;11.576;2023-08-01T05:59:01;94604.78;;;18.41;72.92
81608;BME280;71022;48.122;11.576;2023-08-01T06:01:28;94613.97;;;18.38;72.55
81608;BME280;71022;48.122;11.576;2023-08-01T06:03:55;94612.00;;;18.58;72.90
81608;BME280;71022;48.122;11.576;2023-08-01T06:06:23;94609.13;;;18.61;72.01
81608;BME280;71022;48.122;11.576;2023-08-01T06:08:53;94609.06;;;18.65;72.16
81608;BME280;71022;48.122;11.576;2023-08-01T06:11:20;94610.78;;;18.59;71.93
81608;BME280;71022;48.122;11.576;2023-08-01T06:13:47;94607.69;;;18.73;71.40
81608;BME280;71022;48.122;11.576;2023-08-01T06:16:14;94607.41;;;18.87;71.14
81608;BME280;71022;48.122;11.576;2023-08-01T06:18:42;94594.16;;;18.75;71.00
81608;BME280;71022;48.122;11.576;2023-08-01T06:21:09;94586.78;;;18.85;70.14
81608;BME280;71022;48.122;11.576;2023-08-01T06:23:36;94590.72;;;18.87;69.37
81608;BME280;71022;48.122;11.576;2023-08-01T06:26:03;94586.31;;;18.70;70.50
81608;BME280;71022;48.122;11.576;2023-08-01T06:28:31;94586.03;;;18.84;70.08
81608;BME280;71022;48.122;11.576;2023-08-01T06:30:58;94575.94;;;18.90;69.14
81608;BME280;71022;48.122;11.576;2023-08-01T06:33:25;94571.91;;;18.75;68.48
81608;BME280;71022;48.122;11.576;2023-08-01T06:35:52;94555.75;;;18.86;68.78
81608;BME280;71022;48.122;11.576;2023-08-01T06:38:20;94558.19;;;18.84;67.60
81608;BME280;71022;48.122;11.576;2023-08-01T06:40:47;94545.41;;;18.87;67.69
81608;BME280;71022;48.122;11.576;2023-08-01T06:43:14;94540.06;;;18.76;66.95
81608;BME280;71022;48.122;11.576;2023-08-01T06:45:42;94526.72;;;18.87;66.16
81608;BME280;71022;48.122;11.576;2023-08-01T06:48:09;94529.25;;;18.98;64.91
81608;BME280;71022;48.122;11.576;2023-08-01T06:50:36;94518.03;;;19.01;65.85
81608;BME280;71022;48.122;11.576;2023-08-01T06:53:03;94517.34;;;18.97;64.03
81608;BME280;71022;48.122;11.576;2023-08-01T06:55:31;94505.53;;;18.93;63.74
81608;BME280;71022;48.122;11.576;2023-08-01T06:58:01;94505.22;;;18.88;64.54
81608;BME280;71022;48.122;11.576;2023-08-01T07:00:28;94503.16;;;18.92;63.77
81608;BME280;71022;48.122;11.576;2023-08-01T07:02:56;94498.53;;;18.85;63.20
81608;BME280;71022;48.122;11.576;2023-08-01T07:05:23;94497.50;;;18.95;63.37
81608;BME280;71022;48.122;11.576;2023-08-01T07:07:51;94496.81;;;19.07;63.34
81608;BME280;71022;48.122;11.576;2023-08-01T07:10:18;94496.13;;;18.87;61.29
81608;BME280;71022;48.122;11.576;2023-08-01T07:12:46;94491.41;;;19.00;61.97
81608;BME280;71022;48.122;11.576;2023-08-01T07:15:17;94488.22;;;19.02;61.59
81608;BME280;71022;48.122;11.576;2023-08-01T07:17:44;94468.03;;;18.98;60.60
81608;BME280;71022;48.122;11.576;2023-08-01T07:20:11;94470.13;;;19.10;59.04
81608;BME280;71022;48.122;11.576;2023-08-01T07:22:38;94470.19;;;19.06;61.27
81608;BME280;71022;48.122;11.576;2023-08-01T07:25:06;94466.91;;;19.11;59.88
81608;BME280;71022;48.122;11.576;2023-08-01T07:27:33;94464.44;;;19.29;58.54
81608;BME280;71022;48.122;11.576;2023-08-01T07:30:02;94452.88;;;19.31;59.26
81608;BME280;71022;48.122;11.576;2023-08-01T07:32:29;94452.88;;;19.31;58.45
81608;BME280;71022;48.122;11.576;2023-08-01T07:35:00;94466.53;;;19.25;58.64
81608;BME280;71022;48.122;11.576;2023-08-01T07:37:28;94472.47;;;19.11;58.69
81608;BME280;71022;48.122;11.576;2023-08-01T07:39:56;94474.72;;;19.16;58.93
81608;BME280;71022;48.122;11.576;2023-08-01T07:42:24;94465.75;;;19.25;57.61
81608;BME280;71022;48.122;11.576;2023-08-01T07:44:51;94443.56;;;19.21;58.19
81608;BME280;71022;48.122;11.576;2023-08-01T07:47:18;94426.88;;;19.21;57.51
81608;BME280;71022;48.122;11.576;2023-08-01T07:49:46;94452.13;;;19.14;58.50
81608;BME280;71022;48.122;11.576;2023-08-01T07:52:13;94455.59;;;19.18;57.91
81608;BME280;71022;48.122;11.576;2023-08-01T07:54:40;94442.53;;;19.31;57.92
81608;BME280;71022;48.122;11.576;2023-08-01T07:57:08;94442.19;;;19.46;56.67
81608;BME280;71022;48.122;11.576;2023-08-01T07:59:35;94425.16;;;19.56;58.10
81608;BME280;71022;48.122;11.576;2023-08-01T08:02:05;94438.84;;;19.51;58.24
81608;BME280;71022;48.122;11.576;2023-08-01T08:04:32;94434.84;;;19.35;59.65
81608;BME280;71022;48.122;11.576;2023-08-01T08:07:00;94435.91;;;19.42;60.54
81608;BME280;71022;48.122;11.576;2023-08-01T08:09:27;94456.19;;;19.42;60.94
81608;BME280;71022;48.122;11.576;2023-08-01T08:11:54;94443.94;;;19.40;61.52
81608;BME280;71022;48.122;11.576;2023-08-01T08:14:24;94438.28;;;19.43;60.89
81608;BME280;71022;48.122;11.576;2023-08-01T08:16:51;94425.47;;;19.46;60.56
81608;BME280;71022;48.122;11.576;2023-08-01T08:19:19;94414.16;;;19.53;60.89
81608;BME280;71022;48.122;11.576;2023-08-01T08:21:46;94425.28;;;19.53;60.79
81608;BME280;71022;48.122;11.576;2023-08-01T08:24:13;94461.25;;;19.47;60.93
81608;BME280;71022;48.122;11.576;2023-08-01T08:26:40;94468.09;;;19.59;60.43
81608;BME280;71022;48.122;11.576;2023-08-01T08:29:08;94462.13;;;19.73;60.31
81608;BME280;71022;48.122;11.576;2023-08-01T08:31:36;94468.41;;;19.77;59.97
81608;BME280;71022;48.122;11.576;2023-08-01T08:34:04;94485.38;;;19.95;59.87
81608;BME280;71022;48.122;11.576;2023-08-01T08:36:31;94474.31;;;20.20;59.70
81608;BME280;71022;48.122;11.576;2023-08-01T08:38:58;94466.66;;;20.37;59.33
81608;BME280;71022;48.122;11.576;2023-08-01T08:41:28;94472.16;;;20.28;58.68
81608;BME280;71022;48.122;11.576;2023-08-01T08:43:59;94476.63;;;20.51;59.36
81608;BME280;71022;48.122;11.576;2023-08-01T08:46:29;94477.09;;;20.62;59.19
81608;BME280;71022;48.122;11.576;2023-08-01T08:48:57;94481.66;;;20.68;58.72
81608;BME280;71022;48.122;11.576;2023-08-01T08:51:26;94480.22;;;20.64;57.88
81608;BME280;71022;48.122;11.576;2023-08-01T08:53:56;94490.72;;;20.60;58.29
81608;BME280;71022;48.122;11.576;2023-08-01T08:56:26;94499.41;;;20.62;58.55
81608;BME280;71022;48.122;11.576;2023-08-01T08:58:56;94492.28;;;20.61;57.69
81608;BME280;71022;48.122;11.576;2023-08-01T09:01:23;94497.41;;;20.75;56.37
81608;BME280;71022;48.122;11.576;2023-08-01T09:03:50;94502.63;;;20.73;57.27
81608;BME280;71022;48.122;11.576;2023-08-01T09:06:25;94502.09;;;20.78;57.26
81608;BME280;71022;48.122;11.576;2023-08-01T09:11:38;94488.25;;;20.62;56.66
81608;BME280;71022;48.122;11.576;2023-08-01T09:14:08;94482.53;;;20.53;56.60
81608;BME280;71022;48.122;11.576;2023-08-01T09:16:35;94482.22;;;20.51;56.73
81608;BME280;71022;48.122;11.576;2023-08-01T09:19:05;94476.84;;;20.56;57.30
81608;BME280;71022;48.122;11.576;2023-08-01T09:21:34;94465.38;;;20.54;57.17
81608;BME280;71022;48.122;11.576;2023-08-01T09:24:12;94478.22;;;20.52;56.95
81608;BME280;71022;48.122;11.576;2023-08-01T09:26:40;94482.91;;;20.55;57.02
81608;BME280;71022;48.122;11.576;2023-08-01T09:29:08;94491.50;;;20.60;56.74
81608;BME280;71022;48.122;11.576;2023-08-01T09:31:40;94511.69;;;20.52;56.67
81608;BME280;71022;48.122;11.576;2023-08-01T09:34:21;94513.22;;;20.53;57.33
81608;BME280;71022;48.122;11.576;2023-08-01T09:36:49;94520.66;;;20.43;57.65
81608;BME280;71022;48.122;11.576;2023-08-01T09:39:19;94529.50;;;20.41;57.70
81608;BME280;71022;48.122;11.576;2023-08-01T09:42:00;94520.50;;;20.63;58.25
81608;BME280;71022;48.122;11.576;2023-08-01T09:44:29;94522.09;;;20.64;58.07
81608;BME280;71022;48.122;11.576;2023-08-01T09:49:24;94516.91;;;20.50;57.15
81608;BME280;71022;48.122;11.576;2023-08-01T09:51:51;94514.47;;;20.64;57.71
81608;BME280;71022;48.122;11.576;2023-08-01T09:54:19;94520.56;;;20.47;57.30
81608;BME280;71022;48.122;11.576;2023-08-01T09:56:49;94512.44;;;20.39;56.47
81608;BME280;71022;48.122;11.576;2023-08-01T09:59:23;94532.31;;;20.54;56.70
81608;BME280;71022;48.122;11.576;2023-08-01T10:01:51;94522.84;;;20.52;55.17
81608;BME280;71022;48.122;11.576;2023-08-01T10:04:23;94525.69;;;20.35;55.44
81608;BME280;71022;48.122;11.576;2023-08-01T10:06:57;94534.28;;;20.12;55.31
81608;BME280;71022;48.122;11.576;2023-08-01T10:09:26;94513.00;;;20.18;57.37
81608;BME280;71022;48.122;11.576;2023-08-01T10:11:57;94544.19;;;20.01;56.97
81608;BME280;71022;48.122;11.576;2023-08-01T10:14:25;94549.16;;;19.93;57.98
81608;BME280;71022;48.122;11.576;2023-08-01T10:16:53;94531.75;;;19.89;57.70
81608;BME280;71022;48.122;11.576;2023-08-01T10:19:22;94554.22;;;19.82;57.89
81608;BME280;71022;48.122;11.576;2023-08-01T10:21:50;94553.53;;;19.78;57.88
81608;BME280;71022;48.122;11.576;2023-08-01T10:24:23;94537.41;;;19.85;57.03
81608;BME280;71022;48.122;11.576;2023-08-01T10:26:51;94558.75;;;19.76;57.73
81608;BME280;71022;48.122;11.576;2023-08-01T10:29:18;94559.09;;;19.78;57.22
81608;BME280;71022;48.122;11.576;2023-08-01T10:31:54;94560.69;;;19.79;57.51
81608;BME280;71022;48.122;11.576;2023-08-01T10:34:22;94545.53;;;19.80;57.72
81608;BME280;71022;48.122;11.576;2023-08-01T10:36:56;94523.09;;;20.00;58.43
81608;BME280;71022;48.122;11.576;2023-08-01T10:39:25;94535.44;;;19.99;57.25
81608;BME280;71022;48.122;11.576;2023-08-01T10:42:02;94526.84;;;19.93;57.83
81608;BME280;71022;48.122;11.576;2023-08-01T10:44:29;94529.78;;;19.73;57.23
81608;BME280;71022;48.122;11.576;2023-08-01T10:47:04;94507.28;;;19.80;58.98
81608;BME280;71022;48.122;11.576;2023-08-01T10:52:03;94530.25;;;19.56;59.74
81608;BME280;71022;48.122;11.576;2023-08-01T10:54:32;94516.38;;;19.36;61.80
81608;BME280;71022;48.122;11.576;2023-08-01T10:57:01;94510.81;;;19.36;63.07
81608;BME280;71022;48.122;11.576;2023-08-01T10:59:29;94513.97;;;19.38;63.51
81608;BME280;71022;48.122;11.576;2023-08-01T11:01:58;94509.88;;;19.43;62.84
81608;BME280;71022;48.122;11.576;2023-08-01T11:04:26;94487.75;;;19.52;62.69
81608;BME280;71022;48.122;11.576;2023-08-01T11:06:55;94471.16;;;19.32;61.08
81608;BME280;71022;48.122;11.576;2023-08-01T11:09:26;94485.41;;;19.34;62.17
81608;BME280;71022;48.122;11.576;2023-08-01T11:11:58;94495.06;;;19.29;61.92
81608;BME280;71022;48.122;11.576;2023-08-01T11:14:27;94498.72;;;19.26;62.23
81608;BME280;71022;48.122;11.576;2023-08-01T11:16:57;94511.09;;;19.25;62.55
81608;BME280;71022;48.122;11.576;2023-08-01T11:19:28;94511.09;;;19.25;63.69
81608;BME280;71022;48.122;11.576;2023-08-01T11:21:57;94501.69;;;19.19;63.81
81608;BME280;71022;48.122;11.576;2023-08-01T11:24:25;94505.00;;;19.14;64.21
81608;BME280;71022;48.122;11.576;2023-08-01T11:26:56;94512.84;;;19.19;64.45
81608;BME280;71022;48.122;11.576;2023-08-01T11:29:23;94512.31;;;19.24;63.56
81608;BME280;71022;48.122;11.576;2023-08-01T11:31:58;94524.63;;;19.23;63.61
81608;BME280;71022;48.122;11.576;2023-08-01T11:34:26;94521.53;;;19.21;64.63
81608;BME280;71022;48.122;11.576;2023-08-01T11:36:53;94535.97;;;19.16;64.92
81608;BME280;71022;48.122;11.576;2023-08-01T11:39:21;94532.06;;;19.14;65.35
81608;BME280;71022;48.122;11.576;2023-08-01T11:41:51;94526.06;;;18.99;64.93
81608;BME280;71022;48.122;11.576;2023-08-01T11:44:23;94537.00;;;19.06;65.12
81608;BME280;71022;48.122;11.576;2023-08-01T11:46:51;94541.59;;;18.81;66.26
81608;BME280;71022;48.122;11.576;2023-08-01T11:49:18;94527.31;;;18.78;66.94
81608;BME280;71022;48.122;11.576;2023-08-01T11:51:46;94539.47;;;18.85;66.48
81608;BME280;71022;48.122;11.576;2023-08-01T11:54:16;94535.56;;;18.82;65.90
81608;BME280;71022;48.122;11.576;2023-08-01T11:57:00;94527.84;;;18.90;66.20
81608;BME280;71022;48.122;11.576;2023-08-01T11:59:28;94535.06;;;19.03;65.65
81608;BME280;71022;48.122;11.576;2023-08-01T12:01:55;94529.19;;;19.17;65.50
81608;BME280;71022;48.122;11.576;2023-08-01T12:04:27;94523.25;;;19.15;64.61
81608;BME280;71022;48.122;11.576;2023-08-01T12:06:54;94548.91;;;19.07;65.13
81608;BME280;71022;48.122;11.576;2023-08-01T12:09:23;94548.31;;;19.15;64.95
81608;BME280;71022;48.122;11.576;2023-08-01T12:12:00;94546.72;;;18.98;65.28
81608;BME280;71022;48.122;11.576;2023-08-01T12:14:28;94535.09;;;19.19;65.19
81608;BME280;71022;48.122;11.576;2023-08-01T12:16:56;94548.66;;;19.33;64.48
81608;BME280;71022;48.122;11.576;2023-08-01T12:19:23;94546.09;;;19.59;63.51
81608;BME280;71022;48.122;11.576;2023-08-01T12:21:51;94565.38;;;19.82;63.25
81608;BME280;71022;48.122;11.576;2023-08-01T12:24:18;94560.59;;;20.11;62.36
81608;BME280;71022;48.122;11.576;2023-08-01T12:26:45;94560.91;;;20.29;62.44
81608;BME280;71022;48.122;11.576;2023-08-01T12:29:13;94561.00;;;20.26;61.38
81608;BME280;71022;48.122;11.576;2023-08-01T12:35:08;94562.66;;;20.23;61.80
81608;BME280;71022;48.122;11.576;2023-08-01T12:37:38;94561.31;;;19.99;62.12
81608;BME280;71022;48.122;11.576;2023-08-01T12:40:15;94557.91;;;20.08;61.95
81608;BME280;71022;48.122;11.576;2023-08-01T12:42:43;94566.00;;;20.18;61.87
81608;BME280;71022;48.122;11.576;2023-08-01T12:45:14;94550.03;;;20.19;61.84
81608;BME280;71022;48.122;11.576;2023-08-01T12:47:44;94565.94;;;20.34;61.69
81608;BME280;71022;48.122;11.576;2023-08-01T12:50:12;94548.84;;;20.49;61.05
81608;BME280;71022;48.122;11.576;2023-08-01T12:52:42;94557.28;;;20.45;60.97
81608;BME280;71022;48.122;11.576;2023-08-01T12:55:09;94549.16;;;20.51;61.29
81608;BME280;71022;48.122;11.576;2023-08-01T12:57:37;94561.66;;;20.59;61.27
81608;BME280;71022;48.122;11.576;2023-08-01T13:00:05;94556.09;;;20.59;63.25
81608;BME280;71022;48.122;11.576;2023-08-01T13:02:32;94560.78;;;20.62;63.60
81608;BME280;71022;48.122;11.576;2023-08-01T13:05:00;94551.44;;;20.81;64.31
81608;BME280;71022;48.122;11.576;2023-08-01T13:07:27;94572.50;;;20.57;65.06